Latest Weather Observations for Penrith

IDN60901

Issued at 9:51 pm EDT Saturday 16 December 2017 (issued every 10 minutes, with the page automatically refreshed every 10 minutes)

About weather observations | Map of Sydney area stations | Latest observations for Sydney area | Other Formats
Station Details ID: 067113 Name: PENRITH LAKES AWS Lat: -33.72 Lon: 150.68 Height: 24.7 m
Data from the previous 72 hours. | See also: Recent months at Penrith
Date/Time
EDT
Temp
°C
App
Temp
°C
Dew
Point
°C
Rel
Hum
%
Delta-T
°C
Wind Press
QNH
hPa
Press
MSL
hPa
Rain since
9am
mm
Dir  Spd
km/h
Gust
km/h
Spd
kts
Gust
kts
16/09:30pm 26.4 25.7 15.4 50 6.7 S 13 20 7 11 - - 0.2
16/09:00pm 27.7 25.8 12.9 40 8.7 S 15 20 8 11 - - 0.2
16/08:30pm 28.4 27.6 11.0 34 9.9 S 6 9 3 5 - - 0.2
16/08:00pm 30.0 28.6 9.5 28 11.5 E 7 9 4 5 - - 0.2
16/07:30pm 31.8 30.1 9.9 26 12.5 NE 9 13 5 7 - - 0.2
16/07:00pm 33.1 30.2 9.8 24 13.3 NE 15 19 8 10 - - 0.2
16/06:30pm 34.8 31.4 10.6 23 14.1 NE 19 22 10 12 - - 0.2
16/06:00pm 36.2 34.5 13.6 25 13.9 E 15 24 8 13 - - 0.2
16/05:30pm 37.0 35.7 14.9 27 13.8 ESE 15 24 8 13 - - 0.2
16/05:00pm 37.2 35.2 15.6 27 13.7 ESE 20 30 11 16 - - 0.2
16/04:30pm 37.3 35.4 15.7 27 13.7 ESE 20 30 11 16 - - 0.2
16/04:00pm 39.1 38.4 12.0 20 16.4 NW 7 11 4 6 - - 0.2
16/03:30pm 39.6 38.6 12.4 20 16.6 SE 9 24 5 13 - - 0.2
16/03:00pm 38.8 38.3 12.5 21 16.0 SSW 7 13 4 7 - - 0.2
16/02:30pm 38.7 37.1 11.7 20 16.3 NE 11 20 6 11 - - 0.2
16/02:00pm 37.2 36.5 11.9 22 15.2 NNW 7 13 4 7 - - 0.2
16/01:30pm 37.2 36.3 12.6 23 14.9 ENE 9 17 5 9 - - 0.2
16/01:00pm 36.7 36.6 12.2 23 14.8 ESE 4 9 2 5 - - 0.2
16/12:30pm 35.4 34.8 12.4 25 13.8 ENE 7 17 4 9 - - 0.2
16/12:00pm 35.4 34.6 11.7 23 14.1 NNW 7 15 4 8 - - 0.2
16/11:30am 33.6 32.9 13.1 29 12.4 ENE 9 19 5 10 - - 0.2
16/11:00am 32.8 32.7 13.9 31 11.5 ENE 7 13 4 7 - - 0.2
16/10:30am 32.2 32.6 14.8 35 10.7 ENE 6 11 3 6 - - 0.2
16/10:00am 30.7 32.1 16.3 42 9.0 S 4 7 2 4 - - 0.2
16/09:30am 28.9 31.3 18.9 54 6.5 S 4 7 2 4 - - 0.0
16/09:00am 27.2 29.6 18.8 60 5.4 SSE 4 6 2 3 - - 0.6
16/08:30am 25.4 28.8 20.9 76 3.0 SE 4 6 2 3 - - 0.6
16/08:00am 23.7 27.2 21.8 89 1.3 S 6 7 3 4 - - 0.6
16/07:30am 23.8 27.2 20.9 84 1.9 SSE 4 6 2 3 - - 0.6
16/07:00am 22.9 27.1 21.7 93 0.8 ENE 2 6 1 3 - - 0.6
16/06:30am 22.1 26.7 21.8 98 0.2 CALM 0 0 0 0 - - 0.6
16/06:00am 22.1 25.4 21.8 98 0.2 N 7 13 4 7 - - 0.6
16/05:30am 21.9 25.7 21.6 98 0.2 NE 4 6 2 3 - - 0.6
16/05:00am 21.9 25.3 21.6 98 0.2 SSW 6 9 3 5 - - 0.6
16/04:30am 22.1 26.0 21.8 98 0.2 E 4 4 2 2 - - 0.6
16/04:00am 22.2 26.5 21.9 98 0.2 NW 2 6 1 3 - - 0.6
16/03:30am 22.5 26.5 22.0 97 0.3 NNW 4 6 2 3 - - 0.6
16/03:00am 22.3 26.3 22.0 98 0.2 N 4 6 2 3 - - 0.6
16/02:30am 22.7 26.5 22.4 98 0.2 N 6 9 3 5 - - 0.4
16/02:00am 22.8 26.8 22.1 96 0.5 NNE 4 11 2 6 - - 0.0
16/01:30am 22.8 26.1 21.4 92 0.9 ESE 6 9 3 5 - - 0.0
16/01:00am 22.7 26.1 21.7 94 0.7 SW 6 6 3 3 - - 0.0
16/12:30am 22.5 26.7 21.8 96 0.5 SW 2 4 1 2 - - 0.0
16/12:00am 22.7 26.4 22.2 97 0.3 SW 6 6 3 3 - - 0.0
 
Date/Time
EDT
Temp
°C
App
Temp
°C
Dew
Point
°C
Rel
Hum
%
Delta-T
°C
Wind Press
QNH
hPa
Press
MSL
hPa
Rain since
9am
mm
Dir  Spd
km/h
Gust
km/h
Spd
kts
Gust
kts
15/11:30pm 23.1 26.8 22.3 95 0.5 SSE 6 7 3 4 - - 0.0
15/11:00pm 23.4 27.5 22.2 93 0.8 N 4 6 2 3 - - 0.0
15/10:30pm 23.7 27.4 22.3 92 0.9 N 6 7 3 4 - - 0.0
15/10:00pm 23.5 28.3 22.1 92 0.9 CALM 0 0 0 0 - - 0.0
15/09:30pm 23.2 26.8 21.3 89 1.2 SSE 4 4 2 2 - - 0.0
15/09:00pm 23.3 26.7 21.6 90 1.1 S 6 7 3 4 - - 0.0
15/08:30pm 23.1 26.4 20.8 87 1.5 E 4 6 2 3 - - 0.0
15/08:00pm 24.1 28.0 21.2 84 1.9 E 2 4 1 2 - - 0.0
15/07:30pm 24.3 28.6 21.2 83 2.0 CALM 0 0 0 0 - - 0.0
15/07:00pm 24.0 27.3 20.7 82 2.2 S 4 6 2 3 - - 0.0
15/06:30pm 24.1 27.0 20.6 81 2.3 SW 6 7 3 4 - - 0.0
15/06:00pm 24.2 27.6 21.7 86 1.7 W 6 13 3 7 - - 0.0
15/05:30pm 25.4 28.3 20.6 75 3.1 ENE 6 9 3 5 - - 0.0
15/05:00pm 26.1 28.9 18.0 61 5.1 CALM 0 0 0 0 - - 0.0
15/04:30pm 27.2 28.6 17.4 55 6.2 W 6 7 3 4 - - 0.0
15/04:00pm 27.8 29.2 17.3 52 6.6 WSW 6 7 3 4 - - 0.0
15/03:30pm 27.9 28.8 16.2 49 7.2 W 6 9 3 5 - - 0.0
15/03:00pm 28.4 30.3 16.7 49 7.3 WNW 2 7 1 4 - - 0.0
15/02:30pm 27.2 27.9 16.2 51 6.8 SE 7 11 4 6 - - 0.0
15/02:00pm 27.8 28.4 16.7 50 6.9 SW 9 13 5 7 - - 0.0
15/01:30pm 27.6 28.6 16.9 52 6.7 SSW 7 11 4 6 - - 0.0
15/01:00pm 27.4 27.8 16.4 51 6.8 S 9 13 5 7 - - 0.0
15/12:30pm 27.1 28.6 16.7 53 6.5 SW 4 6 2 3 - - 0.0
15/12:00pm 26.4 27.3 16.1 53 6.3 SSW 6 9 3 5 - - 0.0
15/11:30am 27.3 28.2 16.6 52 6.6 SSE 7 13 4 7 - - 0.0
15/11:00am 25.2 25.2 17.1 60 5.0 SSE 13 20 7 11 - - 0.0
15/10:30am 25.5 25.9 17.2 60 5.2 S 11 20 6 11 - - 0.0
15/10:00am 25.6 25.1 17.0 59 5.3 SSE 15 24 8 13 - - 0.0
15/09:30am 25.2 24.9 16.4 58 5.4 SSE 13 19 7 10 - - 0.0
15/09:00am 24.1 23.6 16.9 64 4.4 S 15 24 8 13 - - 0.0
15/08:30am 23.2 22.1 17.2 69 3.7 SSE 19 28 10 15 - - 0.0
15/08:00am 23.9 24.4 17.4 67 4.0 S 11 15 6 8 - - 0.0
15/07:30am 23.8 24.3 17.5 68 3.9 SSE 11 17 6 9 - - 0.0
15/07:00am 22.9 23.9 17.8 73 3.2 SSE 9 15 5 8 - - 0.0
15/06:30am 22.5 24.3 18.3 77 2.6 S 6 7 3 4 - - 0.0
15/06:00am 21.9 23.6 18.1 79 2.4 SE 6 9 3 5 - - 0.0
15/05:30am 22.0 23.3 18.4 80 2.3 SE 9 15 5 8 - - 0.0
15/05:00am 22.2 24.0 18.8 81 2.1 SSE 7 13 4 7 - - 0.0
15/04:30am 22.2 23.6 18.6 80 2.3 SE 9 13 5 7 - - 0.0
15/04:00am 22.8 23.0 18.6 77 2.6 SSE 15 26 8 14 - - 0.0
15/03:30am 23.5 23.8 17.9 71 3.5 S 13 22 7 12 - - 0.0
15/03:00am 24.2 24.7 17.4 65 4.2 S 11 17 6 9 - - 0.0
15/02:30am 24.1 25.4 17.1 65 4.3 SSW 6 7 3 4 - - 0.0
15/02:00am 24.8 25.1 17.0 62 4.8 S 11 15 6 8 - - 0.0
15/01:30am 25.5 26.0 16.6 58 5.5 S 9 15 5 8 - - 0.0
15/01:00am 26.2 26.3 16.4 54 6.0 SSE 11 17 6 9 - - 0.0
15/12:30am 26.9 27.7 15.9 51 6.7 S 6 7 3 4 - - 0.0
15/12:00am 27.5 28.7 15.8 48 7.2 SSE 4 4 2 2 - - 0.0
 
Date/Time
EDT
Temp
°C
App
Temp
°C
Dew
Point
°C
Rel
Hum
%
Delta-T
°C
Wind Press
QNH
hPa
Press
MSL
hPa
Rain since
9am
mm
Dir  Spd
km/h
Gust
km/h
Spd
kts
Gust
kts
14/11:30pm 27.7 28.0 15.0 45 7.7 SSE 7 11 4 6 - - 0.0
14/11:00pm 28.5 28.7 14.7 43 8.4 SSE 7 11 4 6 - - 0.0
14/10:30pm 29.7 29.4 14.3 39 9.3 S 9 15 5 8 - - 0.0
14/10:00pm 30.9 30.8 14.9 37 9.8 S 9 17 5 9 - - 0.0
14/09:30pm 30.8 31.0 14.8 37 9.8 SSW 7 13 4 7 - - 0.0
14/09:00pm 31.4 32.3 15.0 37 10.1 ESE 4 6 2 3 - - 0.0
14/08:30pm 32.9 32.6 14.5 33 11.3 ENE 9 15 5 8 - - 0.0
14/08:00pm 35.7 34.6 10.0 21 14.9 WSW 6 13 3 7 - - 0.0
14/07:30pm 36.9 34.7 9.5 19 15.9 W 11 17 6 9 - - 0.0
14/07:00pm 37.9 35.0 9.5 18 16.5 W 15 28 8 15 - - 0.0
14/06:30pm 39.1 36.2 9.6 17 17.3 WSW 15 22 8 12 - - 0.0
14/06:00pm 39.9 35.7 8.4 15 18.2 WSW 20 30 11 16 - - 0.0
14/05:30pm 42.3 38.6 8.1 13 19.9 WSW 17 22 9 12 - - 0.0
14/05:00pm 41.7 38.2 8.8 14 19.2 WSW 17 28 9 15 - - 0.0
14/04:30pm 42.9 39.8 7.4 12 20.5 WNW 13 22 7 12 - - 0.0
14/04:00pm 41.3 37.2 6.2 12 19.7 WNW 17 26 9 14 - - 0.0
14/03:30pm 43.2 39.8 7.7 12 20.6 W 15 28 8 15 - - 0.0
14/03:00pm 41.7 38.7 7.7 13 19.6 WSW 13 28 7 15 - - 0.0
14/02:30pm 41.9 38.2 7.8 13 19.7 WSW 17 26 9 14 - - 0.0
14/02:00pm 41.8 38.2 6.6 12 20.0 WNW 15 24 8 13 - - 0.0
14/01:30pm 40.9 37.9 5.9 12 19.6 NW 11 43 6 23 - - 0.0
14/01:00pm 39.3 36.4 9.8 17 17.3 NNW 15 26 8 14 - - 0.0
14/12:30pm 40.7 36.9 9.0 15 18.5 NNW 19 28 10 15 - - 0.0
14/12:00pm 39.9 36.0 9.3 16 17.9 NNW 20 30 11 16 - - 0.0
14/11:30am 38.5 35.9 10.8 19 16.5 NNW 15 30 8 16 - - 0.0
14/11:00am 36.0 36.0 13.5 26 13.8 ENE 6 9 3 5 - - 0.0
14/10:30am 32.8 33.8 15.3 34 10.9 WNW 4 9 2 5 - - 0.0
14/10:00am 31.2 31.8 15.2 38 9.9 NW 6 9 3 5 - - 0.0
14/09:30am 29.1 29.4 14.9 42 8.6 NW 7 11 4 6 - - 0.0
14/09:00am 28.6 29.6 14.4 41 8.6 NW 2 6 1 3 - - 0.0
14/08:30am 26.7 27.5 14.8 48 7.2 NNW 4 7 2 4 - - 0.0
14/08:00am 25.7 26.2 13.9 48 7.0 N 4 6 2 3 - - 0.0
14/07:30am 24.6 25.8 15.8 58 5.3 SE 4 6 2 3 - - 0.0
14/07:00am 24.1 26.3 16.4 62 4.7 CALM 0 0 0 0 - - 0.0
14/06:30am 23.1 25.5 17.1 69 3.7 CALM 0 0 0 0 - - 0.0
14/06:00am 20.6 23.2 17.6 83 1.8 CALM 0 0 0 0 - - 0.0
14/05:30am 19.6 21.8 17.4 87 1.3 WSW 2 4 1 2 - - 0.0
14/05:00am 19.5 21.6 17.1 86 1.5 SSW 2 4 1 2 - - 0.0
14/04:30am 20.1 22.7 17.5 85 1.6 CALM 0 0 0 0 - - 0.0
14/04:00am 20.6 23.2 17.4 82 2.0 CALM 0 0 0 0 - - 0.0
14/03:30am 20.5 22.4 16.7 79 2.3 SSW 2 4 1 2 - - 0.0
14/03:00am 21.0 22.5 16.6 76 2.7 S 4 6 2 3 - - 0.0
14/02:30am 21.1 22.2 16.5 75 2.8 S 6 7 3 4 - - 0.0
14/02:00am 21.9 23.0 16.6 72 3.2 S 6 9 3 5 - - 0.0
14/01:30am 21.9 22.7 16.4 71 3.3 S 7 11 4 6 - - 0.0
14/01:00am 22.7 23.6 16.5 68 3.8 S 7 9 4 5 - - 0.0
14/12:30am 23.2 23.9 16.0 64 4.4 S 7 9 4 5 - - 0.0
14/12:00am 23.9 24.6 16.2 62 4.7 S 7 9 4 5 - - 0.0
 
Date/Time
EDT
Temp
°C
App
Temp
°C
Dew
Point
°C
Rel
Hum
%
Delta-T
°C
Wind Press
QNH
hPa
Press
MSL
hPa
Rain since
9am
mm
Dir  Spd
km/h
Gust
km/h
Spd
kts
Gust
kts
13/11:30pm 24.5 24.7 15.7 58 5.3 S 9 13 5 7 - - 0.0
13/11:00pm 24.9 25.6 16.1 58 5.4 SSW 7 11 4 6 - - 0.0
13/10:30pm 25.7 26.9 16.8 58 5.5 SW 6 6 3 3 - - 0.0
13/10:00pm 25.8 27.3 16.6 56 5.7 SW 4 6 2 3 - - 0.0

Latest Capital City Observations: Canberra | Sydney | Melbourne | Brisbane | Adelaide | Perth | Hobart | Darwin

Other Formats:

Comma delimited format used in spreadsheet applications
http://www.bom.gov.au/fwo/IDN60901/IDN60901.94763.axf

JavaScript Object Notation format (JSON) in row-major order
http://www.bom.gov.au/fwo/IDN60901/IDN60901.94763.json